Time;durP1;ratioP1;P1;durP2;ratioP2;P2;SDS_P1;SDS_P2;PMS_P1;PMS_P2;Temp;Humidity;BMP_temperature;BMP_pressure;BME280_temperature;BME280_humidity;BME280_pressure;Samples;Min_cycle;Max_cycle;Signal;HPM_P1;HPM_P2
2023/02/18 07:51:08;;;;;;;;;5.25;3.00;;;;;13.82;60.81;102330.91;4997303;28;45929;-65
2023/02/18 07:54:07;;;;;;;;;;;;;;;;;;;;;
2023/02/18 07:57:06;;;;;;;;;3.75;3.75;;;;;13.75;60.86;102323.88;5087038;27;73220;-65
2023/02/18 08:10:18;;;;;;;;;2.00;2.00;;;;;13.70;60.44;102330.22;5025284;28;45598;-65
2023/02/18 08:12:59;;;;;;;;;2.00;2.00;;;;;13.66;60.51;102317.78;5054007;28;47080;-65
2023/02/18 08:15:46;;;;;;;;;;;;;;;;;;;;;
2023/02/18 08:18:56;;;;;;;;;;;;;;;;;;;;;
2023/02/18 08:21:46;;;;;;;;;4.00;4.00;;;;;13.60;60.35;102330.44;5093812;27;72627;-65
2023/02/18 08:24:40;;;;;;;;;3.00;2.75;;;;;13.80;60.52;102367.59;5077606;27;46212;-65
2023/02/18 08:30:52;;;;;;;;;2.75;2.75;;;;;13.70;60.27;102372.31;5081706;27;45501;-65
2023/02/18 08:33:44;;;;;;;;;2.75;2.00;;;;;13.70;60.44;102369.63;5090880;27;45648;-65
2023/02/18 08:37:24;;;;;;;;;;;;;;;;;;;;;
2023/02/18 08:40:21;;;;;;;;;;;;;;;;;;;;;
2023/02/18 08:43:42;;;;;;;;;;;;;;;;;;;;;
2023/02/18 08:53:51;;;;;;;;;;;;;;;;;;;;;
2023/02/18 09:00:45;;;;;;;;;;;;;;;;;;;;;
2023/02/18 09:10:57;;;;;;;;;;;;;;;;;;;;;
2023/02/18 09:21:11;;;;;;;;;0.75;0.75;;;;;13.90;59.90;102379.97;5002257;28;46076;-65
2023/02/18 09:23:37;;;;;;;;;2.00;1.00;;;;;13.90;60.03;102399.63;5001474;28;45899;-70
2023/02/18 09:26:25;;;;;;;;;2.00;1.00;;;;;13.71;59.64;102364.22;4995705;28;45658;-70
2023/02/18 09:29:06;;;;;;;;;1.25;0.00;;;;;13.63;60.19;102362.56;5017362;28;46824;-70
2023/02/18 09:57:25;;;;;;;;;;;;;;;;;;;;;
2023/02/18 13:46:55;;;;;;;;;1.00;1.00;;;;;14.12;57.95;102261.38;4896150;28;45396;-72
2023/02/18 13:49:30;;;;;;;;;1.00;0.00;;;;;13.97;58.00;102231.25;4925907;28;45316;-68
2023/02/18 13:51:58;;;;;;;;;2.25;1.00;;;;;14.12;58.07;102262.25;4913851;28;45534;-70
2023/02/18 13:54:30;;;;;;;;;0.00;0.00;;;;;14.22;58.03;102277.22;4890639;29;45489;-69
2023/02/18 13:57:02;;;;;;;;;0.75;0.75;;;;;14.24;58.40;102277.19;4903715;28;45432;-69
2023/02/18 13:59:30;;;;;;;;;1.00;1.00;;;;;14.43;58.25;102302.69;4915311;28;45514;-69
2023/02/18 14:06:15;;;;;;;;;0.25;0.25;;;;;14.35;58.55;102274.22;4873293;28;45367;-69
2023/02/18 14:08:41;;;;;;;;;0.25;0.25;;;;;14.35;58.39;102266.16;4906743;28;46511;-70
2023/02/18 14:11:13;;;;;;;;;0.00;0.00;;;;;14.38;58.40;102269.69;4912338;28;45577;-70
2023/02/18 14:13:45;;;;;;;;;2.00;1.00;;;;;14.50;58.77;102281.03;4910315;28;45360;-70
2023/02/18 14:16:11;;;;;;;;;1.00;0.00;;;;;14.48;58.62;102272.13;4896598;29;45168;-70
2023/02/18 14:18:42;;;;;;;;;1.00;1.00;;;;;14.48;58.90;102264.06;4886180;28;47695;-71
2023/02/18 14:21:14;;;;;;;;;2.00;1.25;;;;;14.56;58.87;102275.53;4898567;28;45544;-70
2023/02/18 14:24:05;;;;;;;;;0.75;0.75;;;;;14.30;58.74;102219.72;4899446;29;45616;-72
2023/02/18 14:26:35;;;;;;;;;1.00;1.00;;;;;14.61;58.57;102270.94;4886216;29;45656;-73
2023/02/18 14:29:14;;;;;;;;;0.75;0.75;;;;;14.46;58.91;102246.19;4901688;29;46028;-73
2023/02/18 14:31:45;;;;;;;;;1.00;1.00;;;;;14.56;58.29;102265.66;4909151;28;45624;-71
2023/02/18 14:34:37;;;;;;;;;0.50;0.50;;;;;14.59;58.58;102276.34;4910606;28;45561;-69
2023/02/18 14:37:38;;;;;;;;;1.00;1.00;;;;;14.62;58.68;102272.72;4914574;28;45241;-68
2023/02/18 14:40:07;;;;;;;;;1.00;1.00;;;;;14.62;58.85;102273.59;4902208;28;47123;-69
2023/02/18 14:43:23;;;;;;;;;1.00;0.00;;;;;14.24;58.72;102208.22;4920443;28;45582;-68
2023/02/18 14:57:22;;;;;;;;;;;;;;;;;;;;;
2023/02/18 15:03:05;;;;;;;;;0.00;0.00;;;;;14.40;58.70;102219.50;4896243;28;47085;-69
2023/02/18 15:06:05;;;;;;;;;;;;;;;;;;;;;
2023/02/18 15:08:37;;;;;;;;;1.00;1.00;;;;;14.50;59.02;102238.94;4916300;28;67811;-70
2023/02/18 15:11:15;;;;;;;;;0.75;0.75;;;;;14.46;58.89;102232.75;4897845;28;45751;-70
2023/02/18 15:14:24;;;;;;;;;0.00;0.00;;;;;14.50;58.94;102236.25;4904517;28;46297;-69
2023/02/18 15:17:38;;;;;;;;;;;;;;;;;;;;;
2023/02/18 15:20:30;;;;;;;;;1.50;1.00;;;;;14.21;59.41;102168.00;4911660;28;68366;-69
2023/02/18 15:30:13;;;;;;;;;;;;;;;;;;;;;
2023/02/18 15:33:46;;;;;;;;;2.50;2.00;;;;;14.34;59.32;102162.34;4908550;28;68037;-67
2023/02/18 15:36:26;;;;;;;;;;;;;;;;;;;;;
2023/02/18 15:39:53;;;;;;;;;1.75;1.00;;;;;14.63;59.61;102208.19;4909536;28;74268;-67
2023/02/18 15:42:51;;;;;;;;;;;;;;;;;;;;;
2023/02/18 15:46:25;;;;;;;;;;;;;;;;;;;;;
2023/02/18 15:56:06;;;;;;;;;0.00;0.00;;;;;14.41;59.21;102178.25;4730876;30;45441;-67
2023/02/18 16:02:20;;;;;;;;;0.00;0.00;;;;;14.62;59.49;102210.91;4763308;29;45839;-69
2023/02/18 16:11:25;;;;;;;;;2.00;2.00;;;;;14.37;59.55;102165.84;5037278;23;45591;-70
2023/02/18 16:18:13;;;;;;;;;;;;;;;;;;;;;
2023/02/18 16:21:31;;;;;;;;;;;;;;;;;;;;;
2023/02/18 16:24:50;;;;;;;;;;;;;;;;;;;;;
2023/02/18 16:27:32;;;;;;;;;2.50;2.00;;;;;14.35;59.06;102143.50;4881116;28;72059;-71
2023/02/18 16:30:06;;;;;;;;;2.00;2.00;;;;;14.58;59.16;102190.38;4896210;28;47527;-69
2023/02/18 16:32:34;;;;;;;;;1.00;1.00;;;;;14.46;59.27;102175.44;4911751;28;45691;-69
2023/02/18 16:35:05;;;;;;;;;2.50;2.00;;;;;14.61;59.39;102198.38;4908685;28;45499;-70
2023/02/18 16:38:09;;;;;;;;;3.25;2.00;;;;;14.61;59.45;102203.75;4909655;28;45740;-71
2023/02/18 16:51:17;;;;;;;;;;;;;;;;;;;;;
2023/02/18 17:23:06;;;;;;;;;1.50;1.50;;;;;14.14;60.18;102182.50;4052108;23;46674;-70
2023/02/18 17:38:33;;;;;;;;;;;;;;;;;;;;;
2023/02/18 17:44:41;;;;;;;;;3.50;3.00;;;;;14.12;60.26;102178.13;4832422;29;45587;-71
2023/02/18 17:48:05;;;;;;;;;;;;;;;;;;;;;
2023/02/18 17:51:12;;;;;;;;;;;;;;;;;;;;;
2023/02/18 17:53:40;;;;;;;;;2.00;2.00;;;;;14.28;60.37;102206.34;4871604;29;45864;-71
2023/02/18 17:56:56;;;;;;;;;;;;;;;;;;;;;
2023/02/18 17:59:39;;;;;;;;;2.00;1.00;;;;;14.37;60.63;102224.94;4860875;29;73305;-70
2023/02/18 18:02:34;;;;;;;;;;;;;;;;;;;;;
2023/02/18 18:05:05;;;;;;;;;3.00;2.00;;;;;14.07;60.79;102183.59;4909333;28;72967;-71
2023/02/18 18:11:08;;;;;;;;;3.00;3.00;;;;;14.17;60.79;102192.31;4878253;28;45760;-72
2023/02/18 18:13:34;;;;;;;;;5.00;4.00;;;;;14.30;60.98;102217.94;4912418;28;46151;-69
2023/02/18 18:15:59;;;;;;;;;2.75;2.75;;;;;14.24;60.84;102210.03;4921713;28;45510;-68
2023/02/18 18:18:26;;;;;;;;;4.00;4.00;;;;;14.26;60.94;102208.19;4921312;28;45694;-69
2023/02/18 18:20:55;;;;;;;;;3.00;3.00;;;;;14.18;61.01;102199.44;4906551;28;45583;-68
2023/02/18 18:23:21;;;;;;;;;3.00;3.00;;;;;14.31;60.91;102222.38;4922108;28;46674;-68
2023/02/18 18:25:55;;;;;;;;;5.50;5.00;;;;;14.14;60.89;102198.63;4920924;28;45377;-68
2023/02/18 18:28:21;;;;;;;;;3.75;3.50;;;;;14.30;60.80;102231.38;4902287;28;45342;-68
2023/02/18 18:30:50;;;;;;;;;4.00;3.00;;;;;13.98;60.88;102173.97;4921133;28;45497;-68
2023/02/18 18:33:17;;;;;;;;;3.25;3.25;;;;;14.38;60.61;102239.25;4903930;28;47945;-67
2023/02/18 18:35:45;;;;;;;;;5.25;4.50;;;;;14.06;60.80;102200.63;4918499;28;46047;-70
2023/02/18 18:38:12;;;;;;;;;3.00;2.50;;;;;14.33;60.90;102250.09;4901653;28;45458;-70
2023/02/18 18:40:38;;;;;;;;;3.75;3.75;;;;;14.12;60.79;102211.22;4895597;28;45789;-70
2023/02/18 18:43:03;;;;;;;;;4.25;4.25;;;;;14.08;61.12;102214.88;4913718;28;46096;-71
2023/02/18 18:45:33;;;;;;;;;4.50;3.25;;;;;14.30;60.78;102244.81;4916339;28;45800;-70
2023/02/18 18:47:59;;;;;;;;;3.00;3.00;;;;;14.14;60.87;102219.25;4899814;28;45672;-69
2023/02/18 18:50:26;;;;;;;;;4.00;4.00;;;;;14.21;60.70;102223.53;4909960;28;45916;-67
2023/02/18 18:52:53;;;;;;;;;3.00;3.00;;;;;13.93;61.14;102183.91;4912898;28;46038;-67
2023/02/18 18:55:29;;;;;;;;;4.75;4.00;;;;;14.11;60.79;102219.31;4900147;28;45716;-67
2023/02/18 18:57:56;;;;;;;;;1.00;1.00;;;;;14.04;61.04;102208.69;4914771;28;45500;-67
2023/02/18 19:00:28;;;;;;;;;3.00;3.00;;;;;14.11;61.00;102224.69;4913174;28;45570;-67
2023/02/18 19:02:54;;;;;;;;;4.50;3.00;;;;;14.10;61.18;102218.44;4896797;28;47658;-67
2023/02/18 19:05:24;;;;;;;;;3.75;3.75;;;;;14.31;60.95;102259.13;4907436;28;45574;-69
2023/02/18 19:07:50;;;;;;;;;4.00;3.50;;;;;14.25;61.20;102252.97;4899234;28;45750;-70
2023/02/18 19:10:17;;;;;;;;;4.00;4.00;;;;;14.05;61.06;102226.59;4911896;28;45431;-69
2023/02/18 19:12:44;;;;;;;;;4.00;3.00;;;;;14.05;61.08;102217.66;4913576;28;45692;-68
2023/02/18 19:15:13;;;;;;;;;3.00;2.00;;;;;13.89;61.20;102198.31;4894502;28;45776;-68
2023/02/18 19:17:44;;;;;;;;;4.00;4.00;;;;;14.23;61.19;102253.91;4908111;28;45522;-69
2023/02/18 19:20:16;;;;;;;;;4.75;4.00;;;;;14.28;61.42;102265.44;4912338;28;45772;-68
2023/02/18 19:22:41;;;;;;;;;5.00;5.00;;;;;13.97;61.15;102220.50;4907845;28;47416;-68
2023/02/18 19:25:07;;;;;;;;;4.00;4.00;;;;;14.20;61.08;102249.50;4910886;28;45545;-69
2023/02/18 19:27:38;;;;;;;;;5.50;3.50;;;;;13.90;61.10;102189.38;4900157;28;45728;-68
2023/02/18 19:30:05;;;;;;;;;5.75;5.75;;;;;14.25;61.14;102255.66;4900375;28;45611;-68
2023/02/18 19:32:34;;;;;;;;;4.00;4.00;;;;;14.30;61.20;102252.88;4917766;28;45563;-67
2023/02/18 19:35:02;;;;;;;;;6.00;4.50;;;;;14.27;61.30;102250.25;4897666;29;45451;-67
2023/02/18 19:37:31;;;;;;;;;5.00;5.00;;;;;14.14;61.30;102227.28;4913145;28;45487;-67
2023/02/18 19:39:56;;;;;;;;;5.50;4.00;;;;;14.02;61.46;102207.00;4899926;28;45916;-69
2023/02/18 19:42:21;;;;;;;;;4.25;4.25;;;;;14.29;61.28;102252.91;4898005;28;47329;-68
2023/02/18 19:44:47;;;;;;;;;4.00;4.00;;;;;13.90;61.37;102197.41;4900437;28;46219;-69
2023/02/18 19:47:12;;;;;;;;;5.00;3.00;;;;;13.92;61.46;102202.75;4917864;28;45419;-68
2023/02/18 19:49:37;;;;;;;;;5.50;5.50;;;;;14.21;61.38;102262.00;4917921;28;45553;-68
2023/02/18 19:52:03;;;;;;;;;3.00;3.00;;;;;13.85;61.55;102197.53;4895996;29;47163;-68
2023/02/18 19:54:30;;;;;;;;;4.75;3.75;;;;;13.73;61.70;102176.31;4911478;28;45424;-68
2023/02/18 19:56:56;;;;;;;;;5.25;4.50;;;;;13.83;61.69;102187.72;4900638;28;45577;-68
2023/02/18 19:59:21;;;;;;;;;5.00;5.00;;;;;14.12;61.88;102237.19;4897909;28;45597;-69
2023/02/18 20:01:47;;;;;;;;;7.00;5.00;;;;;13.93;61.40;102208.06;4916385;28;46270;-68
2023/02/18 20:04:12;;;;;;;;;5.00;4.50;;;;;14.15;61.80;102247.84;4917570;28;45487;-68
2023/02/18 20:06:38;;;;;;;;;6.75;6.75;;;;;13.77;61.65;102182.50;4894464;28;46033;-68
2023/02/18 20:09:03;;;;;;;;;5.00;5.00;;;;;14.11;61.90;102233.59;4915474;28;45772;-69
2023/02/18 20:11:29;;;;;;;;;6.00;5.00;;;;;13.86;61.55;102183.16;4916662;28;45754;-69
2023/02/18 20:13:55;;;;;;;;;6.00;5.25;;;;;14.06;61.52;102208.66;4899730;28;45618;-68
2023/02/18 20:16:20;;;;;;;;;5.75;5.00;;;;;13.89;61.82;102180.41;4917501;28;45664;-70
2023/02/18 20:18:46;;;;;;;;;5.00;4.00;;;;;13.96;61.55;102188.31;4897842;28;45602;-69
2023/02/18 20:21:11;;;;;;;;;4.50;3.50;;;;;13.78;61.69;102152.06;4893395;28;47224;-69
2023/02/18 20:23:37;;;;;;;;;5.00;5.00;;;;;13.82;61.58;102159.13;4887592;28;45428;-70
2023/02/18 20:26:10;;;;;;;;;5.75;5.75;;;;;13.88;61.65;102172.38;4900489;28;45495;-68
2023/02/18 20:28:36;;;;;;;;;4.00;4.00;;;;;13.96;61.39;102188.31;4916891;28;45562;-69
2023/02/18 20:31:10;;;;;;;;;4.75;4.75;;;;;13.83;61.73;102174.28;4897142;28;47816;-70
2023/02/18 20:33:36;;;;;;;;;5.00;4.75;;;;;13.76;61.40;102176.25;4912352;28;45535;-69
2023/02/18 20:36:07;;;;;;;;;3.75;3.75;;;;;13.87;61.77;102190.31;4917510;28;45395;-69
2023/02/18 20:38:33;;;;;;;;;5.75;5.25;;;;;14.11;61.47;102228.22;4916041;28;45744;-71
2023/02/18 20:41:06;;;;;;;;;6.00;4.00;;;;;13.92;61.70;102192.03;4909729;28;46171;-68
2023/02/18 20:43:31;;;;;;;;;6.75;5.00;;;;;13.90;61.72;102184.00;4886219;28;45728;-69
2023/02/18 20:46:05;;;;;;;;;3.25;3.00;;;;;13.87;61.71;102189.44;4897051;28;45706;-69
2023/02/18 20:48:31;;;;;;;;;5.25;5.25;;;;;13.87;61.55;102186.75;4900109;28;45951;-68
2023/02/18 20:51:03;;;;;;;;;6.75;6.25;;;;;14.05;61.96;102207.78;4897989;28;47061;-71
2023/02/18 20:53:33;;;;;;;;;3.75;3.00;;;;;13.84;61.64;102176.06;4900757;28;45644;-70
2023/02/18 20:55:59;;;;;;;;;5.25;5.25;;;;;13.80;61.79;102183.31;4903113;28;45549;-71
2023/02/18 20:58:25;;;;;;;;;8.00;6.00;;;;;13.78;61.92;102171.75;4919467;28;45865;-71
2023/02/18 21:00:56;;;;;;;;;5.00;5.00;;;;;14.03;61.99;102223.06;4919062;28;46766;-72
2023/02/18 21:03:22;;;;;;;;;4.50;4.50;;;;;14.06;61.60;102224.78;4917808;28;45854;-71
2023/02/18 21:05:54;;;;;;;;;3.25;2.00;;;;;13.86;61.95;102193.03;4913773;28;45586;-71
2023/02/18 21:08:19;;;;;;;;;4.75;4.75;;;;;13.92;61.85;102194.69;4900590;28;45533;-69
2023/02/18 21:10:44;;;;;;;;;4.75;4.75;;;;;13.71;61.76;102162.94;4916875;28;46289;-68
2023/02/18 21:13:10;;;;;;;;;5.00;5.00;;;;;13.85;61.78;102192.16;4911266;28;45485;-69
2023/02/18 21:15:36;;;;;;;;;4.00;4.00;;;;;14.03;61.79;102224.84;4902117;28;45531;-70
2023/02/18 21:18:01;;;;;;;;;4.00;4.00;;;;;14.04;61.85;102227.50;4917065;28;45640;-69
2023/02/18 21:20:27;;;;;;;;;5.50;5.50;;;;;14.01;61.74;102210.56;4915926;28;47391;-69
2023/02/18 21:22:52;;;;;;;;;7.00;5.75;;;;;14.00;61.69;102207.03;4914128;28;45649;-69
2023/02/18 21:25:18;;;;;;;;;5.25;5.25;;;;;13.75;61.83;102169.13;4900187;28;45732;-70
2023/02/18 21:27:43;;;;;;;;;4.00;2.50;;;;;14.03;61.82;102215.00;4902185;28;45593;-69
2023/02/18 21:30:09;;;;;;;;;6.75;5.00;;;;;13.85;62.02;102167.13;4902064;28;47309;-69
2023/02/18 21:32:34;;;;;;;;;6.00;6.00;;;;;13.97;62.04;102193.66;4917259;28;45375;-69
2023/02/18 21:34:59;;;;;;;;;3.50;3.50;;;;;13.73;61.89;102153.97;4918020;28;45880;-70
2023/02/18 21:37:25;;;;;;;;;7.00;7.00;;;;;14.03;62.30;102212.31;4912613;28;45463;-69
2023/02/18 21:39:51;;;;;;;;;6.75;6.75;;;;;13.97;62.21;102201.72;4898980;29;47570;-69
2023/02/18 21:42:16;;;;;;;;;4.00;4.00;;;;;13.80;62.24;102175.28;4915399;28;45451;-70
2023/02/18 21:44:41;;;;;;;;;5.00;5.00;;;;;13.78;62.30;102173.53;4916812;28;45359;-69
2023/02/18 21:47:07;;;;;;;;;6.75;4.75;;;;;13.92;62.42;102184.84;4901839;28;45904;-70
2023/02/18 21:49:32;;;;;;;;;4.00;3.00;;;;;14.02;62.27;102215.03;4919510;28;45659;-70
2023/02/18 21:54:35;;;;;;;;;5.75;5.75;;;;;13.73;61.97;102164.69;4912389;28;46159;-69
2023/02/18 21:57:03;;;;;;;;;6.25;4.75;;;;;13.73;62.58;102162.88;4919367;28;45805;-69
2023/02/18 21:59:29;;;;;;;;;4.00;4.00;;;;;13.77;62.27;102164.59;4917964;28;48595;-71
2023/02/18 22:01:58;;;;;;;;;4.50;4.50;;;;;13.77;62.30;102161.91;4902131;28;45763;-70
2023/02/18 22:04:24;;;;;;;;;4.00;4.00;;;;;13.66;62.08;102142.50;4918426;28;45740;-70
2023/02/18 22:06:49;;;;;;;;;3.75;3.75;;;;;14.01;62.25;102206.09;4898139;29;45583;-71
2023/02/18 22:09:15;;;;;;;;;6.00;5.00;;;;;13.81;62.25;102160.03;4897645;28;47494;-71
2023/02/18 22:11:41;;;;;;;;;5.25;5.25;;;;;13.65;62.52;102120.16;4918965;28;45881;-71
2023/02/18 22:14:07;;;;;;;;;5.00;5.00;;;;;13.70;62.55;102133.47;4904895;28;45590;-71
2023/02/18 22:16:33;;;;;;;;;4.50;3.75;;;;;13.74;62.39;102135.16;4893093;28;45770;-70
2023/02/18 22:18:58;;;;;;;;;7.50;5.00;;;;;13.58;62.34;102118.53;4899611;28;47049;-69
2023/02/18 22:21:25;;;;;;;;;4.50;4.50;;;;;13.77;62.52;102153.00;4911089;28;45934;-72
2023/02/18 22:23:50;;;;;;;;;5.00;5.00;;;;;13.70;62.51;102136.16;4910716;28;45563;-69
2023/02/18 22:26:15;;;;;;;;;8.00;5.25;;;;;13.94;62.64;102188.34;4897134;29;45530;-71
2023/02/18 22:28:43;;;;;;;;;6.75;5.00;;;;;13.75;62.89;102155.72;4886968;28;45501;-69
2023/02/18 22:31:10;;;;;;;;;4.00;3.75;;;;;13.93;62.47;102181.22;4911612;28;45446;-70
2023/02/18 22:33:36;;;;;;;;;5.00;5.00;;;;;13.77;62.88;102153.00;4897135;28;45560;-69
2023/02/18 22:36:03;;;;;;;;;5.00;5.00;;;;;13.89;62.88;102172.34;4896698;28;45444;-69
2023/02/18 22:38:29;;;;;;;;;5.25;5.00;;;;;13.89;62.75;102172.34;4900332;28;48568;-70
2023/02/18 22:40:54;;;;;;;;;4.50;4.50;;;;;13.78;62.78;102144.00;4917624;28;45561;-70
2023/02/18 22:43:20;;;;;;;;;5.25;5.25;;;;;13.64;62.51;102122.88;4913170;28;45656;-70
2023/02/18 22:45:45;;;;;;;;;7.00;7.00;;;;;13.76;62.70;102141.34;4916415;28;45730;-69
2023/02/18 22:48:11;;;;;;;;;5.00;5.00;;;;;13.77;62.63;102148.50;4918660;28;45572;-67
2023/02/18 22:50:36;;;;;;;;;5.75;5.75;;;;;13.48;62.78;102104.44;4918489;28;45376;-67
2023/02/18 22:53:02;;;;;;;;;5.75;5.75;;;;;13.97;62.88;102195.47;4899493;28;45524;-67
2023/02/18 22:55:27;;;;;;;;;5.75;4.50;;;;;13.64;62.54;102138.97;4914882;28;45403;-71
2023/02/18 22:57:53;;;;;;;;;6.75;6.75;;;;;13.78;62.77;102166.38;4898214;28;47374;-72
2023/02/18 23:00:23;;;;;;;;;4.00;4.00;;;;;13.91;62.81;102196.47;4900463;28;45988;-70
2023/02/18 23:02:53;;;;;;;;;7.50;4.75;;;;;13.91;62.75;102193.78;4917818;28;45438;-70
2023/02/18 23:05:19;;;;;;;;;6.00;6.00;;;;;13.69;62.62;102155.84;4900392;29;45478;-69
2023/02/18 23:07:44;;;;;;;;;4.75;4.25;;;;;13.90;62.79;102198.28;4920747;28;46128;-69
2023/02/18 23:10:10;;;;;;;;;5.75;5.75;;;;;13.71;62.93;102162.94;4921492;28;45383;-70
2023/02/18 23:12:35;;;;;;;;;4.50;4.50;;;;;13.56;62.77;102128.41;4918467;28;45458;-70
2023/02/18 23:15:01;;;;;;;;;4.25;4.25;;;;;13.87;62.93;102182.25;4903083;28;45795;-70
2023/02/18 23:17:26;;;;;;;;;11.50;6.00;;;;;13.73;63.00;102165.56;4926416;28;47044;-70
2023/02/18 23:19:52;;;;;;;;;6.25;6.25;;;;;13.92;62.89;102203.63;4912312;28;45477;-70
2023/02/18 23:22:40;;;;;;;;;7.00;6.00;;;;;13.89;63.00;102199.19;4921399;28;45618;-70
2023/02/18 23:25:06;;;;;;;;;5.00;4.25;;;;;13.79;62.83;102194.97;4904046;28;46151;-70
2023/02/18 23:27:32;;;;;;;;;5.50;5.25;;;;;13.62;62.93;102159.59;4904152;28;47221;-70
2023/02/18 23:29:57;;;;;;;;;6.25;5.25;;;;;13.86;63.05;102209.13;4904462;28;46087;-70
2023/02/18 23:32:23;;;;;;;;;4.00;4.00;;;;;13.83;63.22;102203.81;4915744;28;45589;-70
2023/02/18 23:34:50;;;;;;;;;4.25;4.25;;;;;13.80;62.94;102201.19;4921568;28;45329;-70
2023/02/18 23:37:16;;;;;;;;;4.50;4.50;;;;;13.83;63.25;102206.50;4901563;28;46999;-70
2023/02/18 23:39:44;;;;;;;;;8.25;8.00;;;;;13.83;63.34;102210.09;4919847;28;45991;-70
2023/02/18 23:42:09;;;;;;;;;5.75;5.75;;;;;13.49;63.49;102159.84;4904309;28;45432;-70
2023/02/18 23:44:34;;;;;;;;;6.75;5.00;;;;;13.73;63.44;102196.91;4908564;28;45339;-70
2023/02/18 23:47:00;;;;;;;;;6.00;6.00;;;;;13.43;63.48;102148.38;4903807;28;47228;-70
2023/02/18 23:49:26;;;;;;;;;5.50;5.50;;;;;13.66;63.67;102190.78;4921202;28;45276;-70
2023/02/18 23:51:53;;;;;;;;;5.00;5.00;;;;;13.77;63.36;102196.81;4920765;28;45400;-70
2023/02/18 23:54:19;;;;;;;;;5.25;4.25;;;;;13.77;63.85;102195.94;4902371;28;45541;-70
2023/02/18 23:56:45;;;;;;;;;5.75;4.75;;;;;13.67;63.79;102187.19;4920977;28;46486;-70
2023/02/18 23:59:11;;;;;;;;;6.00;6.00;;;;;13.63;64.03;102178.34;4904016;28;45572;-70
